createdAt,value
2023-03-31T00:01:44.150Z,9.30
2023-03-31T00:04:44.418Z,9.40
2023-03-31T00:07:21.317Z,9.40
2023-03-31T00:10:16.467Z,9.40
2023-03-31T00:14:04.509Z,9.50
2023-03-31T00:17:08.624Z,9.40
2023-03-31T00:20:04.241Z,9.40
2023-03-31T00:22:31.561Z,9.40
2023-03-31T00:26:32.459Z,9.40
2023-03-31T00:27:57.266Z,9.40
2023-03-31T00:30:33.024Z,9.40
2023-03-31T00:33:07.202Z,9.40
2023-03-31T00:35:51.468Z,9.40
2023-03-31T00:38:30.763Z,9.50
2023-03-31T00:44:20.753Z,9.60
2023-03-31T00:47:03.605Z,9.60
2023-03-31T00:49:58.406Z,9.50
2023-03-31T00:52:31.859Z,9.50
2023-03-31T00:55:17.323Z,9.50
2023-03-31T00:58:11.260Z,9.50
2023-03-31T01:00:50.529Z,9.50
2023-03-31T01:03:26.647Z,9.50
2023-03-31T01:06:07.807Z,9.50
2023-03-31T01:08:44.290Z,9.50
2023-03-31T01:11:19.770Z,9.50
2023-03-31T01:13:59.286Z,9.40
2023-03-31T01:17:25.696Z,9.40
2023-03-31T01:20:06.336Z,9.40
2023-03-31T01:23:08.168Z,9.40
2023-03-31T01:25:58.881Z,9.30
2023-03-31T01:28:38.482Z,9.20
2023-03-31T01:31:36.878Z,9.20
2023-03-31T01:34:10.224Z,9.10
2023-03-31T01:37:28.802Z,9.10
2023-03-31T01:40:28.112Z,9.00
2023-03-31T01:43:20.861Z,9.00
2023-03-31T01:46:07.244Z,9.00
2023-03-31T01:48:48.161Z,8.90
2023-03-31T01:51:52.983Z,9.00
2023-03-31T01:54:50.911Z,8.90
2023-03-31T01:57:51.830Z,8.90
2023-03-31T02:00:33.970Z,8.90
2023-03-31T02:03:29.734Z,8.90
2023-03-31T02:06:32.088Z,8.90
2023-03-31T02:09:38.557Z,8.90
2023-03-31T02:12:20.543Z,8.90
2023-03-31T02:15:01.008Z,8.90
2023-03-31T02:17:44.661Z,9.00
2023-03-31T02:20:32.126Z,9.10
2023-03-31T02:23:17.372Z,9.10
2023-03-31T02:25:53.487Z,9.10
2023-03-31T02:28:32.996Z,9.20
2023-03-31T02:35:11.201Z,9.30
2023-03-31T02:37:53.489Z,9.30
2023-03-31T02:40:24.963Z,9.30
2023-03-31T02:43:28.901Z,9.30
2023-03-31T02:46:32.711Z,9.40
2023-03-31T02:49:14.340Z,9.40
2023-03-31T02:51:58.361Z,9.40
2023-03-31T02:54:43.036Z,9.40
2023-03-31T02:57:25.241Z,9.50
2023-03-31T03:00:12.696Z,9.50
2023-03-31T03:02:52.704Z,9.50
2023-03-31T03:05:39.606Z,9.50
2023-03-31T03:08:34.359Z,9.50
2023-03-31T03:11:28.184Z,9.50
2023-03-31T03:14:30.278Z,9.50
2023-03-31T03:17:24.276Z,9.40
2023-03-31T03:19:56.970Z,9.40
2023-03-31T03:22:35.288Z,9.50
2023-03-31T03:25:13.242Z,9.50
2023-03-31T03:27:53.143Z,9.50
2023-03-31T03:30:30.296Z,9.50
2023-03-31T03:33:06.060Z,9.50
2023-03-31T03:35:54.132Z,9.60
2023-03-31T03:38:34.432Z,9.60
2023-03-31T03:41:09.249Z,9.60
2023-03-31T03:43:51.760Z,9.70
2023-03-31T03:49:12.635Z,9.70
2023-03-31T03:51:39.932Z,9.70
2023-03-31T03:54:20.093Z,9.70
2023-03-31T03:57:12.538Z,9.70
2023-03-31T03:59:52.803Z,9.70
2023-03-31T04:02:45.080Z,9.70
2023-03-31T04:05:23.366Z,9.70
2023-03-31T04:08:42.900Z,9.60
2023-03-31T04:11:46.337Z,9.60
2023-03-31T04:14:20.678Z,9.60
2023-03-31T04:18:01.490Z,9.60
2023-03-31T04:19:54.659Z,9.60
2023-03-31T04:22:53.619Z,9.60
2023-03-31T04:25:48.864Z,9.60
2023-03-31T04:28:32.812Z,9.60
2023-03-31T04:31:49.919Z,9.60
2023-03-31T04:34:09.625Z,9.60
2023-03-31T04:36:42.807Z,9.60
2023-03-31T04:39:35.647Z,9.60
2023-03-31T04:42:24.589Z,9.60
2023-03-31T04:44:53.838Z,9.60
2023-03-31T04:47:33.565Z,9.60
2023-03-31T04:50:03.456Z,9.60
2023-03-31T04:52:46.119Z,9.60
2023-03-31T04:55:29.969Z,9.60
2023-03-31T04:57:57.592Z,9.60
2023-03-31T05:00:37.153Z,9.60
2023-03-31T05:03:17.414Z,9.60
2023-03-31T05:05:45.082Z,9.60
2023-03-31T05:08:30.438Z,9.50
2023-03-31T05:11:07.166Z,9.60
2023-03-31T05:13:51.991Z,9.60
2023-03-31T05:16:47.205Z,9.60
2023-03-31T05:19:45.967Z,9.60
2023-03-31T05:22:30.732Z,9.60
2023-03-31T05:25:13.520Z,9.60
2023-03-31T05:27:56.882Z,9.60
2023-03-31T05:31:01.134Z,9.60
2023-03-31T05:33:34.078Z,9.60
2023-03-31T05:36:34.020Z,9.60
2023-03-31T05:39:08.195Z,9.60
2023-03-31T05:41:38.923Z,9.60
2023-03-31T05:44:36.007Z,9.60
2023-03-31T05:47:48.050Z,9.60
2023-03-31T05:50:38.894Z,9.60
2023-03-31T05:53:27.806Z,9.60
2023-03-31T05:56:34.877Z,9.60
2023-03-31T06:02:20.685Z,9.60
2023-03-31T06:04:51.585Z,9.60
2023-03-31T06:07:58.015Z,9.60
2023-03-31T06:10:34.265Z,9.60
2023-03-31T06:13:14.635Z,9.60
2023-03-31T06:16:56.021Z,9.70
2023-03-31T06:19:52.731Z,9.70
2023-03-31T06:22:45.571Z,9.70
2023-03-31T06:25:19.452Z,9.70
2023-03-31T06:27:59.500Z,9.70
2023-03-31T06:31:10.097Z,9.70
2023-03-31T06:40:18.511Z,9.80
2023-03-31T06:43:06.001Z,9.80
2023-03-31T06:45:44.420Z,9.90
2023-03-31T06:48:28.508Z,9.90
2023-03-31T06:54:00.989Z,9.90
2023-03-31T06:56:35.656Z,9.90
2023-03-31T06:59:08.888Z,9.90
2023-03-31T07:02:11.024Z,9.90
2023-03-31T07:04:51.787Z,9.90
2023-03-31T07:10:22.897Z,9.90
2023-03-31T07:13:12.969Z,9.90
2023-03-31T07:15:51.021Z,9.90
2023-03-31T07:18:47.583Z,9.90
2023-03-31T07:22:14.291Z,9.90
2023-03-31T07:28:18.337Z,9.90
2023-03-31T07:31:03.468Z,9.90
2023-03-31T07:36:39.824Z,9.90
2023-03-31T07:40:09.101Z,9.90
2023-03-31T07:45:44.519Z,10.00
2023-03-31T07:49:29.197Z,10.00
2023-03-31T07:55:17.515Z,10.10
2023-03-31T08:05:35.246Z,10.00
2023-03-31T08:25:25.987Z,9.90
2023-03-31T08:27:53.392Z,9.90
2023-03-31T08:30:56.904Z,9.90
2023-03-31T08:33:54.348Z,9.90
2023-03-31T08:40:50.487Z,10.00
2023-03-31T08:43:13.679Z,10.10
2023-03-31T08:45:59.290Z,10.10
2023-03-31T08:49:19.704Z,10.10
2023-03-31T08:57:23.100Z,10.30
2023-03-31T09:00:50.062Z,10.40
2023-03-31T09:07:17.719Z,10.50
2023-03-31T09:11:04.491Z,10.50
2023-03-31T09:13:55.763Z,10.60
2023-03-31T09:17:44.864Z,10.70
2023-03-31T09:20:43.533Z,10.80
2023-03-31T09:27:06.280Z,11.00
2023-03-31T09:30:15.328Z,11.10
2023-03-31T09:32:53.889Z,11.20
2023-03-31T09:38:27.965Z,11.20
2023-03-31T09:41:33.003Z,11.30
2023-03-31T09:44:38.315Z,11.20
2023-03-31T09:48:36.613Z,11.30
2023-03-31T09:51:40.088Z,11.30
2023-03-31T09:54:50.655Z,11.30
2023-03-31T09:57:56.362Z,11.40
2023-03-31T10:00:45.073Z,11.40
2023-03-31T10:03:38.369Z,11.40
2023-03-31T10:06:18.376Z,11.40
2023-03-31T10:09:20.144Z,11.30
2023-03-31T10:12:25.819Z,11.30
2023-03-31T10:15:20.914Z,11.20
2023-03-31T10:21:47.190Z,11.20
2023-03-31T10:24:48.677Z,11.20
2023-03-31T10:28:02.452Z,11.20
2023-03-31T10:30:45.218Z,11.20
2023-03-31T10:33:41.231Z,11.20
2023-03-31T10:36:55.507Z,11.30
2023-03-31T10:40:20.294Z,11.50
2023-03-31T10:43:40.041Z,11.60
2023-03-31T10:46:16.831Z,11.80
2023-03-31T10:49:04.558Z,12.00
2023-03-31T10:52:23.609Z,12.10
2023-03-31T10:55:03.302Z,12.20
2023-03-31T10:58:24.579Z,12.30
2023-03-31T11:01:37.625Z,12.40
2023-03-31T11:04:35.198Z,12.50
2023-03-31T11:08:08.302Z,12.50
2023-03-31T11:10:37.253Z,12.60
2023-03-31T11:13:43.997Z,12.70
2023-03-31T11:16:30.831Z,12.70
2023-03-31T11:20:06.630Z,12.80
2023-03-31T11:22:38.383Z,12.80
2023-03-31T11:28:45.676Z,13.10
2023-03-31T11:32:02.985Z,13.10
2023-03-31T11:35:05.831Z,13.10
2023-03-31T11:37:45.601Z,13.10
2023-03-31T11:40:54.907Z,13.00
2023-03-31T11:44:05.354Z,13.10
2023-03-31T11:46:55.161Z,12.90
2023-03-31T11:50:03.516Z,12.80
2023-03-31T11:53:18.372Z,12.70
2023-03-31T11:56:01.528Z,12.80
2023-03-31T11:59:08.949Z,12.90
2023-03-31T12:02:55.110Z,12.90
2023-03-31T12:05:34.382Z,12.80
2023-03-31T12:08:38.380Z,12.80
2023-03-31T12:11:29.175Z,12.80
2023-03-31T12:14:21.367Z,12.80
2023-03-31T12:17:04.668Z,12.90
2023-03-31T12:19:46.051Z,13.00
2023-03-31T12:22:24.918Z,13.00
2023-03-31T12:24:52.803Z,13.20
2023-03-31T12:27:32.849Z,13.10
2023-03-31T12:30:14.641Z,13.10
2023-03-31T12:33:15.814Z,13.10
2023-03-31T12:36:22.740Z,13.10
2023-03-31T12:39:09.021Z,13.00
2023-03-31T12:41:36.136Z,12.90
2023-03-31T12:44:15.576Z,12.90
2023-03-31T12:47:04.336Z,12.90
2023-03-31T12:49:58.456Z,12.80
2023-03-31T12:52:38.380Z,12.70
2023-03-31T12:55:24.189Z,12.70
2023-03-31T12:57:51.415Z,12.70
2023-03-31T13:00:19.042Z,12.60
2023-03-31T13:02:48.228Z,12.70
2023-03-31T13:05:37.448Z,12.90
2023-03-31T13:08:08.864Z,12.80
2023-03-31T13:10:59.584Z,12.70
2023-03-31T13:13:27.268Z,12.80
2023-03-31T13:16:02.722Z,12.60
2023-03-31T13:18:34.053Z,12.60
2023-03-31T13:21:08.385Z,12.60
2023-03-31T13:23:46.815Z,12.70
2023-03-31T13:26:32.783Z,12.60
2023-03-31T13:29:37.889Z,12.70
2023-03-31T13:32:11.319Z,12.80
2023-03-31T13:38:49.117Z,12.60
2023-03-31T13:42:07.070Z,12.70
2023-03-31T13:49:03.321Z,12.70
2023-03-31T13:54:57.307Z,13.00
2023-03-31T13:57:50.490Z,13.10
2023-03-31T14:00:28.601Z,13.60
2023-03-31T14:03:18.582Z,13.90
2023-03-31T14:05:50.594Z,13.80
2023-03-31T14:08:34.165Z,13.80
2023-03-31T14:11:35.960Z,13.70
2023-03-31T14:14:35.430Z,13.50
2023-03-31T14:17:03.685Z,13.30
2023-03-31T14:19:48.022Z,13.20
2023-03-31T14:22:39.930Z,13.20
2023-03-31T14:25:36.073Z,13.10
2023-03-31T14:28:24.900Z,13.00
2023-03-31T14:31:20.394Z,12.80
2023-03-31T14:34:25.800Z,12.70
2023-03-31T14:37:15.589Z,12.70
2023-03-31T14:39:44.080Z,12.60
2023-03-31T14:42:17.612Z,12.60
2023-03-31T14:44:50.881Z,12.60
2023-03-31T14:47:50.787Z,12.60
2023-03-31T14:50:53.605Z,12.60
2023-03-31T14:53:49.185Z,12.50
2023-03-31T14:56:40.982Z,12.60
2023-03-31T14:59:38.029Z,12.50
2023-03-31T15:02:26.473Z,12.50
2023-03-31T15:05:32.297Z,12.40
2023-03-31T15:08:22.550Z,12.40
2023-03-31T15:11:02.396Z,12.40
2023-03-31T15:14:05.890Z,12.40
2023-03-31T15:16:58.517Z,12.30
2023-03-31T15:19:45.983Z,12.30
2023-03-31T15:22:30.371Z,12.30
2023-03-31T15:25:03.739Z,12.40
2023-03-31T15:27:43.852Z,12.30
2023-03-31T15:30:35.038Z,12.30
2023-03-31T15:33:23.787Z,12.30
2023-03-31T15:35:53.932Z,12.20
2023-03-31T15:38:37.069Z,12.10
2023-03-31T15:41:29.414Z,12.00
2023-03-31T15:44:42.441Z,11.90
2023-03-31T15:47:29.211Z,11.80
2023-03-31T15:50:34.526Z,11.80
2023-03-31T15:53:49.208Z,11.80
2023-03-31T15:57:06.052Z,11.80
2023-03-31T16:02:53.969Z,11.60
2023-03-31T16:09:06.370Z,11.70
2023-03-31T16:11:50.542Z,11.70
2023-03-31T16:14:29.508Z,11.70
2023-03-31T16:17:18.164Z,11.70
2023-03-31T16:19:55.444Z,11.80
2023-03-31T16:22:28.066Z,11.70
2023-03-31T16:24:55.391Z,11.80
2023-03-31T16:27:23.492Z,11.80
2023-03-31T16:30:12.958Z,11.80
2023-03-31T16:32:59.059Z,11.70
2023-03-31T16:35:57.673Z,11.70
2023-03-31T16:38:29.885Z,11.80
2023-03-31T16:40:58.762Z,11.80
2023-03-31T16:43:33.926Z,11.80
2023-03-31T16:46:04.202Z,11.80
2023-03-31T16:48:35.153Z,11.80
2023-03-31T16:51:02.702Z,11.90
2023-03-31T16:53:31.816Z,11.80
2023-03-31T16:55:58.824Z,11.90
2023-03-31T16:58:28.351Z,11.80
2023-03-31T17:01:01.134Z,11.80
2023-03-31T17:03:32.770Z,11.80
2023-03-31T17:06:06.568Z,11.80
2023-03-31T17:08:33.929Z,11.80
2023-03-31T17:11:04.744Z,11.80
2023-03-31T17:13:35.575Z,11.80
2023-03-31T17:18:50.004Z,11.90
2023-03-31T17:21:19.321Z,11.90
2023-03-31T17:23:47.797Z,11.80
2023-03-31T17:26:15.704Z,11.80
2023-03-31T17:28:43.232Z,11.80
2023-03-31T17:31:19.664Z,11.80
2023-03-31T17:33:47.563Z,11.80
2023-03-31T17:36:17.547Z,11.80
2023-03-31T17:38:45.274Z,11.80
2023-03-31T17:41:14.329Z,11.60
2023-03-31T17:43:45.717Z,11.60
2023-03-31T17:46:13.755Z,11.50
2023-03-31T17:48:42.085Z,11.50
2023-03-31T17:51:34.626Z,11.50
2023-03-31T17:54:09.615Z,11.50
2023-03-31T17:56:53.309Z,11.50
2023-03-31T17:59:57.840Z,11.50
2023-03-31T18:02:32.186Z,11.40
2023-03-31T18:05:45.915Z,11.40
2023-03-31T18:08:13.242Z,11.40
2023-03-31T18:10:50.729Z,11.30
2023-03-31T18:13:55.108Z,11.20
2023-03-31T18:19:44.532Z,11.10
2023-03-31T18:22:14.004Z,11.10
2023-03-31T18:25:34.820Z,11.00
2023-03-31T18:28:24.671Z,11.10
2023-03-31T18:32:00.466Z,11.00
2023-03-31T18:34:00.458Z,10.90
2023-03-31T18:39:28.938Z,10.90
2023-03-31T18:42:15.130Z,10.90
2023-03-31T18:44:42.513Z,10.90
2023-03-31T18:47:47.044Z,10.90
2023-03-31T18:50:59.972Z,10.90
2023-03-31T18:53:31.414Z,10.90
2023-03-31T18:59:05.950Z,10.80
2023-03-31T19:01:57.515Z,10.80
2023-03-31T19:04:45.389Z,10.80
2023-03-31T19:10:33.439Z,10.80
2023-03-31T19:13:00.774Z,10.70
2023-03-31T19:15:41.652Z,10.70
2023-03-31T19:18:36.108Z,10.70
2023-03-31T19:21:11.696Z,10.60
2023-03-31T19:23:53.584Z,10.60
2023-03-31T19:27:07.692Z,10.60
2023-03-31T19:29:19.888Z,10.60
2023-03-31T19:32:00.359Z,10.60
2023-03-31T19:35:00.210Z,10.60
2023-03-31T19:37:34.968Z,10.60
2023-03-31T19:40:28.880Z,10.60
2023-03-31T19:43:03.197Z,10.60
2023-03-31T19:46:06.198Z,10.60
2023-03-31T19:48:48.440Z,10.60
2023-03-31T19:51:26.114Z,10.60
2023-03-31T19:53:53.720Z,10.60
2023-03-31T19:56:34.042Z,10.50
2023-03-31T19:59:14.512Z,10.50
2023-03-31T20:01:42.884Z,10.50
2023-03-31T20:04:12.553Z,10.50
2023-03-31T20:07:13.091Z,10.50
2023-03-31T20:12:58.736Z,10.50
2023-03-31T20:15:30.536Z,10.50
2023-03-31T20:18:08.909Z,10.50
2023-03-31T20:20:44.454Z,10.50
2023-03-31T20:23:31.503Z,10.40
2023-03-31T20:26:20.431Z,10.50
2023-03-31T20:29:02.904Z,10.50
2023-03-31T20:31:46.505Z,10.40
2023-03-31T20:34:32.737Z,10.50
2023-03-31T20:37:20.289Z,10.40
2023-03-31T20:39:54.093Z,10.40
2023-03-31T20:42:37.645Z,10.40
2023-03-31T20:45:39.487Z,10.40
2023-03-31T20:48:45.086Z,10.40
2023-03-31T20:51:37.891Z,10.40
2023-03-31T20:54:32.288Z,10.40
2023-03-31T20:57:43.330Z,10.40
2023-03-31T21:00:25.864Z,10.40
2023-03-31T21:02:53.212Z,10.40
2023-03-31T21:06:11.628Z,10.30
2023-03-31T21:08:21.841Z,10.40
2023-03-31T21:11:02.499Z,10.30
2023-03-31T21:14:08.061Z,10.30
2023-03-31T21:17:11.299Z,10.30
2023-03-31T21:19:57.248Z,10.30
2023-03-31T21:22:31.796Z,10.30
2023-03-31T21:25:11.865Z,10.30
2023-03-31T21:28:00.675Z,10.30
2023-03-31T21:30:54.132Z,10.30
2023-03-31T21:34:16.286Z,10.30
2023-03-31T21:36:46.556Z,10.30
2023-03-31T21:39:31.997Z,10.30
2023-03-31T21:42:20.647Z,10.30
2023-03-31T21:44:59.054Z,10.30
2023-03-31T21:47:41.653Z,10.30
2023-03-31T21:50:39.657Z,10.30
2023-03-31T21:53:32.148Z,10.30
2023-03-31T21:56:15.220Z,10.30
2023-03-31T21:59:12.880Z,10.30
2023-03-31T22:01:44.996Z,10.30
2023-03-31T22:04:41.004Z,10.30
2023-03-31T22:07:23.434Z,10.30
2023-03-31T22:09:50.854Z,10.30
2023-03-31T22:12:29.859Z,10.20
2023-03-31T22:15:05.947Z,10.20
2023-03-31T22:20:58.979Z,10.20
2023-03-31T22:23:28.937Z,10.20
2023-03-31T22:26:12.335Z,10.20
2023-03-31T22:29:02.166Z,10.20
2023-03-31T22:31:35.137Z,10.20
2023-03-31T22:37:09.078Z,10.20
2023-03-31T22:43:02.874Z,10.20
2023-03-31T22:46:04.692Z,10.20
2023-03-31T22:48:39.433Z,10.20
2023-03-31T22:51:27.243Z,10.20
2023-03-31T22:54:07.022Z,10.20
2023-03-31T22:57:26.421Z,10.20
2023-03-31T23:02:56.812Z,10.20
2023-03-31T23:08:58.624Z,10.10
2023-03-31T23:11:13.498Z,10.10
2023-03-31T23:14:09.392Z,10.10
2023-03-31T23:16:43.165Z,10.10
2023-03-31T23:19:20.680Z,10.10
2023-03-31T23:21:51.350Z,10.10
2023-03-31T23:27:57.421Z,10.10
2023-03-31T23:31:03.838Z,10.10
2023-03-31T23:33:46.413Z,10.10
2023-03-31T23:36:27.798Z,10.00
2023-03-31T23:39:23.984Z,10.00
2023-03-31T23:41:59.702Z,10.00
2023-03-31T23:44:41.528Z,10.00
2023-03-31T23:47:24.739Z,10.00
2023-03-31T23:50:02.579Z,10.00
2023-03-31T23:53:05.765Z,10.00
2023-03-31T23:55:53.240Z,10.00
